createdAt,value
2018-12-21T00:03:42.670Z,5.30
2018-12-21T00:08:20.773Z,5.40
2018-12-21T00:12:55.999Z,5.40
2018-12-21T00:17:34.739Z,5.40
2018-12-21T00:22:07.719Z,5.30
2018-12-21T00:26:42.642Z,5.30
2018-12-21T00:31:22.806Z,5.20
2018-12-21T00:36:02.998Z,5.10
2018-12-21T00:40:43.950Z,5.20
2018-12-21T00:45:23.279Z,5.10
2018-12-21T00:49:58.570Z,5.10
2018-12-21T00:54:33.582Z,5.00
2018-12-21T00:59:08.447Z,5.00
2018-12-21T01:03:43.520Z,4.90
2018-12-21T01:08:18.719Z,4.90
2018-12-21T01:12:53.636Z,4.90
2018-12-21T01:17:28.520Z,4.80
2018-12-21T01:22:04.027Z,4.90
2018-12-21T01:26:38.891Z,4.80
2018-12-21T01:31:13.783Z,4.90
2018-12-21T01:35:48.774Z,4.90
2018-12-21T01:40:23.664Z,4.90
2018-12-21T01:44:58.547Z,4.90
2018-12-21T01:49:33.438Z,5.00
2018-12-21T01:54:08.328Z,5.10
2018-12-21T01:58:43.235Z,5.10
2018-12-21T02:03:18.105Z,5.10
2018-12-21T02:07:52.987Z,5.10
2018-12-21T02:12:27.875Z,5.20
2018-12-21T02:17:02.764Z,5.10
2018-12-21T02:21:37.636Z,5.00
2018-12-21T02:26:12.539Z,5.00
2018-12-21T02:30:47.399Z,5.00
2018-12-21T02:35:22.294Z,4.70
2018-12-21T02:39:57.159Z,4.60
2018-12-21T02:44:32.036Z,4.60
2018-12-21T02:49:06.925Z,4.70
2018-12-21T02:53:41.881Z,4.60
2018-12-21T02:58:16.751Z,4.70
2018-12-21T03:02:51.943Z,4.50
2018-12-21T03:07:26.823Z,4.50
2018-12-21T03:12:01.731Z,4.60
2018-12-21T03:16:36.591Z,4.70
2018-12-21T03:21:11.496Z,4.60
2018-12-21T03:25:46.371Z,4.70
2018-12-21T03:30:21.278Z,4.70
2018-12-21T03:34:56.146Z,4.80
2018-12-21T03:39:31.084Z,4.90
2018-12-21T03:44:05.986Z,4.70
2018-12-21T03:48:40.872Z,4.80
2018-12-21T03:53:15.740Z,4.80
2018-12-21T03:57:50.624Z,4.80
2018-12-21T04:02:25.491Z,4.70
2018-12-21T04:07:00.444Z,4.50
2018-12-21T04:11:35.367Z,4.30
2018-12-21T04:16:10.291Z,4.20
2018-12-21T04:20:45.155Z,4.00
2018-12-21T04:25:20.056Z,4.30
2018-12-21T04:29:55.863Z,4.40
2018-12-21T04:34:30.764Z,4.50
2018-12-21T04:39:06.995Z,4.50
2018-12-21T04:43:41.901Z,4.50
2018-12-21T04:48:16.773Z,4.70
2018-12-21T04:52:51.715Z,4.60
2018-12-21T04:57:26.567Z,4.60
2018-12-21T05:02:01.455Z,4.70
2018-12-21T05:06:36.315Z,4.70
2018-12-21T05:11:11.451Z,4.60
2018-12-21T05:15:46.307Z,4.60
2018-12-21T05:20:21.192Z,4.60
2018-12-21T05:24:56.068Z,4.60
2018-12-21T05:29:30.952Z,4.70
2018-12-21T05:34:05.819Z,4.60
2018-12-21T05:38:41.065Z,4.60
2018-12-21T05:43:15.943Z,4.70
2018-12-21T05:47:50.831Z,4.70
2018-12-21T05:52:25.696Z,4.70
2018-12-21T05:57:00.587Z,4.70
2018-12-21T06:01:35.456Z,4.80
2018-12-21T06:06:10.351Z,4.80
2018-12-21T06:10:45.229Z,4.80
2018-12-21T06:15:20.920Z,4.80
2018-12-21T06:19:55.911Z,4.90
2018-12-21T06:24:31.089Z,4.90
2018-12-21T06:29:06.096Z,5.00
2018-12-21T06:33:40.995Z,5.10
2018-12-21T06:38:15.858Z,5.10
2018-12-21T06:42:50.893Z,5.20
2018-12-21T06:47:26.206Z,5.20
2018-12-21T06:52:01.134Z,5.30
2018-12-21T06:56:36.104Z,5.30
2018-12-21T07:01:11.079Z,5.40
2018-12-21T07:05:45.955Z,5.40
2018-12-21T07:10:20.839Z,5.40
2018-12-21T07:14:55.716Z,5.40
2018-12-21T07:19:30.635Z,5.40
2018-12-21T07:24:05.535Z,5.50
2018-12-21T07:28:40.704Z,5.40
2018-12-21T07:33:15.567Z,5.50
2018-12-21T07:37:50.462Z,5.70
2018-12-21T07:42:25.335Z,5.80
2018-12-21T07:47:00.287Z,5.90
2018-12-21T07:51:35.126Z,6.00
2018-12-21T07:56:10.205Z,6.20
2018-12-21T08:00:45.089Z,6.30
2018-12-21T08:05:19.967Z,6.20
2018-12-21T08:09:54.827Z,6.30
2018-12-21T08:14:29.703Z,6.30
2018-12-21T08:19:04.627Z,6.40
2018-12-21T08:23:44.257Z,6.40
2018-12-21T08:28:16.644Z,6.40
2018-12-21T08:32:51.546Z,6.50
2018-12-21T08:37:26.620Z,6.50
2018-12-21T08:42:01.474Z,6.50
2018-12-21T08:46:36.338Z,6.50
2018-12-21T08:51:11.243Z,6.60
2018-12-21T08:55:46.168Z,6.70
2018-12-21T09:00:21.126Z,6.70
2018-12-21T09:04:55.992Z,6.70
2018-12-21T09:09:30.919Z,6.60
2018-12-21T09:14:07.181Z,6.60
2018-12-21T09:18:42.294Z,6.70
2018-12-21T09:23:17.153Z,6.70
2018-12-21T09:27:52.094Z,6.70
2018-12-21T09:32:26.965Z,6.80
2018-12-21T09:37:01.848Z,6.90
2018-12-21T09:41:36.711Z,6.80
2018-12-21T09:46:11.587Z,6.90
2018-12-21T09:50:46.479Z,6.90
2018-12-21T09:55:21.526Z,7.00
2018-12-21T09:59:56.479Z,7.20
2018-12-21T10:04:31.404Z,7.10
2018-12-21T10:09:07.714Z,7.20
2018-12-21T10:13:42.640Z,7.30
2018-12-21T10:18:17.531Z,7.40
2018-12-21T10:22:52.865Z,7.50
2018-12-21T10:27:27.728Z,7.70
2018-12-21T10:32:02.859Z,7.70
2018-12-21T10:36:38.308Z,7.70
2018-12-21T10:41:13.207Z,7.90
2018-12-21T10:45:48.083Z,7.90
2018-12-21T10:50:23.011Z,7.90
2018-12-21T10:54:57.893Z,8.00
2018-12-21T10:59:32.784Z,8.00
2018-12-21T11:04:07.646Z,8.10
2018-12-21T11:08:42.555Z,8.30
2018-12-21T11:13:17.448Z,8.60
2018-12-21T11:17:52.335Z,8.70
2018-12-21T11:22:27.223Z,8.80
2018-12-21T11:27:02.114Z,8.90
2018-12-21T11:31:36.979Z,9.00
2018-12-21T11:36:11.892Z,9.40
2018-12-21T11:40:46.750Z,9.40
2018-12-21T11:45:21.637Z,9.40
2018-12-21T11:49:56.520Z,9.50
2018-12-21T11:54:31.414Z,9.50
2018-12-21T11:59:06.275Z,9.50
2018-12-21T12:03:41.158Z,9.50
2018-12-21T12:08:16.036Z,9.50
2018-12-21T12:12:50.949Z,9.50
2018-12-21T12:17:25.837Z,9.50
2018-12-21T12:22:00.719Z,9.60
2018-12-21T12:26:44.136Z,9.60
2018-12-21T12:31:12.515Z,9.70
2018-12-21T12:35:47.423Z,9.70
2018-12-21T12:40:22.663Z,9.80
2018-12-21T12:44:57.535Z,9.90
2018-12-21T12:49:32.427Z,9.90
2018-12-21T12:54:07.297Z,10.10
2018-12-21T12:58:42.254Z,10.20
2018-12-21T13:03:17.155Z,10.10
2018-12-21T13:07:52.075Z,10.00
2018-12-21T13:12:26.975Z,10.00
2018-12-21T13:17:01.872Z,10.00
2018-12-21T13:21:36.743Z,10.10
2018-12-21T13:26:11.624Z,9.90
2018-12-21T13:30:46.512Z,9.80
2018-12-21T13:35:21.714Z,9.70
2018-12-21T13:39:56.581Z,9.60
2018-12-21T13:44:31.492Z,9.50
2018-12-21T13:49:06.363Z,9.30
2018-12-21T13:53:41.256Z,9.10
2018-12-21T13:58:16.127Z,8.90
2018-12-21T14:02:51.044Z,8.70
2018-12-21T14:07:25.917Z,8.60
2018-12-21T14:12:00.807Z,8.40
2018-12-21T14:16:35.692Z,8.40
2018-12-21T14:21:10.594Z,8.10
2018-12-21T14:25:45.472Z,8.10
2018-12-21T14:30:20.382Z,8.00
2018-12-21T14:34:55.243Z,8.00
2018-12-21T14:39:30.139Z,7.90
2018-12-21T14:44:05.019Z,7.80
2018-12-21T14:48:39.955Z,7.90
2018-12-21T14:53:14.824Z,8.00
2018-12-21T14:57:49.736Z,7.90
2018-12-21T15:02:24.610Z,7.90
2018-12-21T15:06:59.523Z,8.00
2018-12-21T15:11:34.403Z,7.90
2018-12-21T15:16:09.283Z,7.90
2018-12-21T15:20:44.162Z,8.00
2018-12-21T15:25:19.060Z,8.20
2018-12-21T15:29:53.920Z,8.20
2018-12-21T15:34:28.827Z,8.10
2018-12-21T15:39:06.364Z,8.00
2018-12-21T15:43:41.265Z,8.00
2018-12-21T15:48:16.132Z,7.80
2018-12-21T15:52:51.933Z,7.80
2018-12-21T15:57:27.080Z,7.80
2018-12-21T16:02:02.107Z,7.80
2018-12-21T16:06:37.211Z,7.70
2018-12-21T16:11:12.228Z,7.70
2018-12-21T16:15:47.088Z,7.80
2018-12-21T16:20:21.979Z,7.70
2018-12-21T16:24:56.837Z,7.70
2018-12-21T16:29:31.728Z,7.70
2018-12-21T16:34:06.588Z,7.70
2018-12-21T16:38:41.467Z,7.80
2018-12-21T16:43:16.323Z,7.80
2018-12-21T16:47:51.206Z,7.70
2018-12-21T16:52:26.068Z,7.70
2018-12-21T16:57:01.169Z,7.60
2018-12-21T17:01:36.030Z,7.60
2018-12-21T17:06:10.912Z,7.70
2018-12-21T17:10:46.944Z,7.60
2018-12-21T17:15:22.841Z,7.50
2018-12-21T17:19:57.711Z,7.50
2018-12-21T17:24:32.588Z,7.30
2018-12-21T17:29:07.450Z,7.30
2018-12-21T17:33:43.039Z,7.40
2018-12-21T17:38:17.908Z,7.40
2018-12-21T17:42:52.786Z,7.30
2018-12-21T17:47:27.656Z,7.30
2018-12-21T17:52:02.552Z,7.20
2018-12-21T17:56:37.408Z,7.10
2018-12-21T18:01:12.332Z,7.20
2018-12-21T18:05:47.211Z,7.20
2018-12-21T18:10:22.099Z,7.30
2018-12-21T18:14:56.966Z,7.30
2018-12-21T18:19:31.865Z,7.20
2018-12-21T18:24:06.727Z,7.20
2018-12-21T18:28:42.027Z,7.10
2018-12-21T18:33:19.061Z,7.20
2018-12-21T18:38:00.680Z,7.20
2018-12-21T18:42:35.548Z,7.20
2018-12-21T18:47:10.435Z,7.10
2018-12-21T18:51:45.309Z,7.10
2018-12-21T18:56:23.862Z,7.10
2018-12-21T19:00:58.739Z,7.10
2018-12-21T19:05:33.779Z,7.00
2018-12-21T19:10:10.195Z,7.00
2018-12-21T19:14:45.125Z,6.90
2018-12-21T19:19:20.025Z,7.00
2018-12-21T19:24:01.219Z,7.00
2018-12-21T19:28:36.140Z,6.90
2018-12-21T19:33:11.077Z,6.90
2018-12-21T19:37:45.951Z,6.90
2018-12-21T19:42:20.846Z,6.90
2018-12-21T19:46:56.095Z,7.00
2018-12-21T19:51:31.396Z,7.00
2018-12-21T19:57:04.441Z,6.80
2018-12-21T20:01:35.595Z,6.80
2018-12-21T20:06:10.536Z,6.80
2018-12-21T20:10:45.400Z,6.90
2018-12-21T20:15:20.332Z,6.80
2018-12-21T20:19:55.205Z,6.80
2018-12-21T20:24:34.373Z,6.90
2018-12-21T20:29:09.237Z,6.90
2018-12-21T20:33:44.133Z,6.90
2018-12-21T20:38:21.568Z,6.90
2018-12-21T20:42:56.016Z,7.00
2018-12-21T20:47:30.899Z,6.90
2018-12-21T20:52:05.788Z,6.80
2018-12-21T20:56:43.677Z,6.70
2018-12-21T21:01:18.585Z,6.70
2018-12-21T21:05:53.451Z,6.70
2018-12-21T21:10:28.827Z,6.60
2018-12-21T21:15:04.431Z,6.70
2018-12-21T21:19:39.929Z,6.70
2018-12-21T21:24:14.830Z,6.80
2018-12-21T21:28:49.723Z,6.90
2018-12-21T21:33:24.587Z,6.80
2018-12-21T21:37:59.464Z,6.70
2018-12-21T21:42:34.328Z,6.80
2018-12-21T21:47:09.244Z,6.70
2018-12-21T21:51:44.110Z,6.70
2018-12-21T21:56:18.994Z,6.70
2018-12-21T22:00:53.861Z,6.70
2018-12-21T22:05:28.759Z,6.80
2018-12-21T22:10:04.895Z,6.80
2018-12-21T22:14:39.828Z,6.70
2018-12-21T22:19:14.695Z,6.70
2018-12-21T22:23:49.584Z,6.60
2018-12-21T22:28:24.443Z,6.60
2018-12-21T22:32:59.334Z,6.60
2018-12-21T22:37:34.203Z,6.70
2018-12-21T22:42:09.083Z,6.70
2018-12-21T22:46:43.948Z,6.80
2018-12-21T22:51:18.859Z,6.90
2018-12-21T22:55:55.082Z,6.80
2018-12-21T23:00:34.507Z,6.90
2018-12-21T23:05:09.624Z,6.90
2018-12-21T23:09:44.511Z,6.90
2018-12-21T23:14:19.371Z,7.00
2018-12-21T23:18:54.330Z,7.00
2018-12-21T23:23:29.220Z,6.90
2018-12-21T23:28:05.217Z,7.00
2018-12-21T23:32:40.523Z,7.10
2018-12-21T23:37:15.497Z,7.00
2018-12-21T23:41:50.351Z,7.00
2018-12-21T23:46:25.224Z,7.00
2018-12-21T23:51:00.105Z,7.10
2018-12-21T23:55:35.055Z,7.10
